createdAt,value
2023-03-31T00:01:41.862Z,13.90
2023-03-31T00:04:13.778Z,13.90
2023-03-31T00:06:43.604Z,13.90
2023-03-31T00:09:14.360Z,13.90
2023-03-31T00:11:43.221Z,13.90
2023-03-31T00:14:13.001Z,13.90
2023-03-31T00:16:43.376Z,13.90
2023-03-31T00:19:18.337Z,13.90
2023-03-31T00:21:48.220Z,13.90
2023-03-31T00:24:17.240Z,13.90
2023-03-31T00:26:46.340Z,13.90
2023-03-31T00:29:15.329Z,13.90
2023-03-31T00:31:46.170Z,13.90
2023-03-31T00:34:16.176Z,13.90
2023-03-31T00:36:47.528Z,13.80
2023-03-31T00:39:19.017Z,13.80
2023-03-31T00:41:47.920Z,13.80
2023-03-31T00:44:22.660Z,13.80
2023-03-31T00:46:58.146Z,13.80
2023-03-31T00:49:32.606Z,13.80
2023-03-31T00:52:05.609Z,13.70
2023-03-31T00:54:35.664Z,13.80
2023-03-31T00:57:06.976Z,13.70
2023-03-31T00:59:39.602Z,13.70
2023-03-31T01:02:10.763Z,13.70
2023-03-31T01:04:45.251Z,13.70
2023-03-31T01:07:20.490Z,13.70
2023-03-31T01:09:50.436Z,13.60
2023-03-31T01:12:20.336Z,13.60
2023-03-31T01:14:51.702Z,13.60
2023-03-31T01:17:25.092Z,13.60
2023-03-31T01:20:11.545Z,13.60
2023-03-31T01:23:13.725Z,13.60
2023-03-31T01:26:02.378Z,13.60
2023-03-31T01:28:39.711Z,13.60
2023-03-31T01:31:40.773Z,13.60
2023-03-31T01:34:38.070Z,13.60
2023-03-31T01:37:55.050Z,13.60
2023-03-31T01:40:47.695Z,13.70
2023-03-31T01:43:24.672Z,13.60
2023-03-31T01:45:58.797Z,13.60
2023-03-31T01:48:36.666Z,13.70
2023-03-31T01:51:14.000Z,13.70
2023-03-31T01:53:50.620Z,13.70
2023-03-31T01:56:26.965Z,13.70
2023-03-31T01:58:59.587Z,13.70
2023-03-31T02:01:37.330Z,13.70
2023-03-31T02:04:12.376Z,13.70
2023-03-31T02:06:44.334Z,13.70
2023-03-31T02:09:17.292Z,13.60
2023-03-31T02:11:49.219Z,13.60
2023-03-31T02:14:22.196Z,13.60
2023-03-31T02:16:58.110Z,13.60
2023-03-31T02:19:31.878Z,13.60
2023-03-31T02:22:03.546Z,13.60
2023-03-31T02:24:35.416Z,13.50
2023-03-31T02:27:12.457Z,13.60
2023-03-31T02:29:42.052Z,13.60
2023-03-31T02:32:17.255Z,13.50
2023-03-31T02:34:46.208Z,13.60
2023-03-31T02:37:16.128Z,13.60
2023-03-31T02:39:49.881Z,13.60
2023-03-31T02:42:20.858Z,13.60
2023-03-31T02:44:52.249Z,13.60
2023-03-31T02:47:23.203Z,13.60
2023-03-31T02:49:55.148Z,13.50
2023-03-31T02:52:46.498Z,13.50
2023-03-31T02:55:43.610Z,13.50
2023-03-31T02:58:53.876Z,13.50
2023-03-31T03:01:34.599Z,13.40
2023-03-31T03:04:17.965Z,13.40
2023-03-31T03:06:57.607Z,13.40
2023-03-31T03:09:37.333Z,13.30
2023-03-31T03:12:14.399Z,13.30
2023-03-31T03:14:52.460Z,13.30
2023-03-31T03:17:25.922Z,13.30
2023-03-31T03:19:56.891Z,13.30
2023-03-31T03:22:25.662Z,13.30
2023-03-31T03:24:54.474Z,13.30
2023-03-31T03:27:24.004Z,13.30
2023-03-31T03:29:54.349Z,13.30
2023-03-31T03:32:23.453Z,13.30
2023-03-31T03:34:52.340Z,13.30
2023-03-31T03:37:21.329Z,13.30
2023-03-31T03:39:50.246Z,13.30
2023-03-31T03:42:19.109Z,13.30
2023-03-31T03:44:48.186Z,13.30
2023-03-31T03:47:18.640Z,13.30
2023-03-31T03:49:49.031Z,13.30
2023-03-31T03:52:18.342Z,13.30
2023-03-31T03:54:47.287Z,13.30
2023-03-31T03:57:16.738Z,13.30
2023-03-31T03:59:45.890Z,13.30
2023-03-31T04:02:15.069Z,13.30
2023-03-31T04:04:45.847Z,13.30
2023-03-31T04:07:14.856Z,13.30
2023-03-31T04:09:43.897Z,13.30
2023-03-31T04:12:12.840Z,13.30
2023-03-31T04:14:41.892Z,13.30
2023-03-31T04:17:15.834Z,13.30
2023-03-31T04:19:50.767Z,13.30
2023-03-31T04:22:20.582Z,13.30
2023-03-31T04:24:53.013Z,13.30
2023-03-31T04:27:23.009Z,13.30
2023-03-31T04:29:54.893Z,13.20
2023-03-31T04:32:24.072Z,13.20
2023-03-31T04:35:02.581Z,13.20
2023-03-31T04:37:34.634Z,13.20
2023-03-31T04:40:09.830Z,13.20
2023-03-31T04:42:38.720Z,13.20
2023-03-31T04:45:08.633Z,13.20
2023-03-31T04:47:37.800Z,13.20
2023-03-31T04:50:13.886Z,13.20
2023-03-31T04:52:44.379Z,13.20
2023-03-31T04:55:13.448Z,13.20
2023-03-31T04:57:43.148Z,13.20
2023-03-31T05:00:13.563Z,13.20
2023-03-31T05:02:42.652Z,13.20
2023-03-31T05:05:13.478Z,13.20
2023-03-31T05:07:42.543Z,13.20
2023-03-31T05:10:12.053Z,13.20
2023-03-31T05:12:41.079Z,13.20
2023-03-31T05:15:11.179Z,13.20
2023-03-31T05:17:40.159Z,13.20
2023-03-31T05:20:10.660Z,13.20
2023-03-31T05:22:43.757Z,13.20
2023-03-31T05:25:14.595Z,13.20
2023-03-31T05:27:43.548Z,13.20
2023-03-31T05:30:13.105Z,13.20
2023-03-31T05:32:42.214Z,13.30
2023-03-31T05:35:12.026Z,13.30
2023-03-31T05:37:42.244Z,13.20
2023-03-31T05:40:12.029Z,13.20
2023-03-31T05:42:41.803Z,13.20
2023-03-31T05:45:11.335Z,13.20
2023-03-31T05:47:40.685Z,13.20
2023-03-31T05:50:12.623Z,13.20
2023-03-31T05:52:45.373Z,13.20
2023-03-31T05:55:14.414Z,13.20
2023-03-31T05:57:43.300Z,13.20
2023-03-31T06:00:13.762Z,13.20
2023-03-31T06:02:43.056Z,13.10
2023-03-31T06:05:12.104Z,13.10
2023-03-31T06:07:41.213Z,13.10
2023-03-31T06:10:11.956Z,13.20
2023-03-31T06:12:40.800Z,13.10
2023-03-31T06:15:10.485Z,13.20
2023-03-31T06:17:39.685Z,13.20
2023-03-31T06:20:20.380Z,13.20
2023-03-31T06:22:55.879Z,13.20
2023-03-31T06:25:26.279Z,13.20
2023-03-31T06:27:55.432Z,13.20
2023-03-31T06:30:24.423Z,13.20
2023-03-31T06:32:53.907Z,13.20
2023-03-31T06:35:23.062Z,13.20
2023-03-31T06:37:52.577Z,13.20
2023-03-31T06:40:21.777Z,13.20
2023-03-31T06:42:52.244Z,13.20
2023-03-31T06:45:21.381Z,13.20
2023-03-31T06:47:50.725Z,13.20
2023-03-31T06:50:20.094Z,13.20
2023-03-31T06:52:52.640Z,13.20
2023-03-31T06:55:21.921Z,13.30
2023-03-31T06:57:52.641Z,13.30
2023-03-31T07:00:23.276Z,13.30
2023-03-31T07:02:52.804Z,13.30
2023-03-31T07:05:26.734Z,13.30
2023-03-31T07:07:56.359Z,13.30
2023-03-31T07:10:26.165Z,13.20
2023-03-31T07:12:56.830Z,13.20
2023-03-31T07:15:28.202Z,13.20
2023-03-31T07:18:02.625Z,13.20
2023-03-31T07:20:32.775Z,13.20
2023-03-31T07:23:05.805Z,13.20
2023-03-31T07:25:34.733Z,13.20
2023-03-31T07:28:06.873Z,13.10
2023-03-31T07:30:36.002Z,13.10
2023-03-31T07:33:05.385Z,13.10
2023-03-31T07:35:34.475Z,13.10
2023-03-31T07:38:03.661Z,13.10
2023-03-31T07:40:32.805Z,13.10
2023-03-31T07:43:01.989Z,13.10
2023-03-31T07:45:32.908Z,13.10
2023-03-31T07:48:02.167Z,13.10
2023-03-31T07:50:31.318Z,13.10
2023-03-31T07:53:02.436Z,13.10
2023-03-31T07:55:31.744Z,13.10
2023-03-31T07:58:00.972Z,13.20
2023-03-31T08:00:30.075Z,13.10
2023-03-31T08:03:00.692Z,13.20
2023-03-31T08:05:30.000Z,13.20
2023-03-31T08:07:59.265Z,13.30
2023-03-31T08:10:29.090Z,13.30
2023-03-31T08:12:58.194Z,13.30
2023-03-31T08:15:27.248Z,13.30
2023-03-31T08:17:56.278Z,13.30
2023-03-31T08:20:26.812Z,13.30
2023-03-31T08:22:56.143Z,13.30
2023-03-31T08:25:25.462Z,13.30
2023-03-31T08:27:56.013Z,13.30
2023-03-31T08:30:25.089Z,13.30
2023-03-31T08:32:54.152Z,13.30
2023-03-31T08:35:23.271Z,13.30
2023-03-31T08:37:53.762Z,13.30
2023-03-31T08:40:26.366Z,13.30
2023-03-31T08:43:00.013Z,13.30
2023-03-31T08:45:33.058Z,13.30
2023-03-31T08:48:07.981Z,13.30
2023-03-31T08:50:42.683Z,13.30
2023-03-31T08:53:22.593Z,13.30
2023-03-31T08:55:53.605Z,13.30
2023-03-31T08:58:35.115Z,13.30
2023-03-31T09:01:14.363Z,13.30
2023-03-31T09:03:54.024Z,13.30
2023-03-31T09:06:38.148Z,13.30
2023-03-31T09:09:12.387Z,13.30
2023-03-31T09:11:48.920Z,13.30
2023-03-31T09:14:27.713Z,13.30
2023-03-31T09:17:14.959Z,13.30
2023-03-31T09:19:48.661Z,13.30
2023-03-31T09:22:23.426Z,13.30
2023-03-31T09:24:59.840Z,13.30
2023-03-31T09:27:33.092Z,13.30
2023-03-31T09:30:11.657Z,13.30
2023-03-31T09:32:41.568Z,13.30
2023-03-31T09:35:18.494Z,13.30
2023-03-31T09:37:47.579Z,13.30
2023-03-31T09:40:20.360Z,13.30
2023-03-31T09:42:55.806Z,13.30
2023-03-31T09:45:25.013Z,13.30
2023-03-31T09:47:56.984Z,13.40
2023-03-31T09:50:27.396Z,13.40
2023-03-31T09:52:58.813Z,13.40
2023-03-31T09:55:40.402Z,13.30
2023-03-31T09:58:14.324Z,13.30
2023-03-31T10:00:44.331Z,13.40
2023-03-31T10:03:14.978Z,13.40
2023-03-31T10:05:51.830Z,13.40
2023-03-31T10:08:31.810Z,13.40
2023-03-31T10:11:12.455Z,13.50
2023-03-31T10:13:50.120Z,13.50
2023-03-31T10:16:24.252Z,13.60
2023-03-31T10:18:53.372Z,13.60
2023-03-31T10:21:26.066Z,13.60
2023-03-31T10:23:56.263Z,13.60
2023-03-31T10:26:29.684Z,13.60
2023-03-31T10:28:58.781Z,13.60
2023-03-31T10:31:37.547Z,13.60
2023-03-31T10:34:08.510Z,13.70
2023-03-31T10:36:37.523Z,13.80
2023-03-31T10:39:08.579Z,13.90
2023-03-31T10:41:41.033Z,14.00
2023-03-31T10:44:36.588Z,14.10
2023-03-31T10:47:17.221Z,14.20
2023-03-31T10:49:50.501Z,14.30
2023-03-31T10:52:22.278Z,14.40
2023-03-31T10:54:54.718Z,14.60
2023-03-31T10:57:37.013Z,14.60
2023-03-31T11:00:17.597Z,14.70
2023-03-31T11:03:20.797Z,14.70
2023-03-31T11:05:52.957Z,14.70
2023-03-31T11:08:42.282Z,14.60
2023-03-31T11:11:32.037Z,14.60
2023-03-31T11:14:09.279Z,14.50
2023-03-31T11:16:46.549Z,14.40
2023-03-31T11:19:33.732Z,14.30
2023-03-31T11:22:09.774Z,14.20
2023-03-31T11:24:57.413Z,14.10
2023-03-31T11:27:38.785Z,14.00
2023-03-31T11:30:18.416Z,13.90
2023-03-31T11:33:01.221Z,13.80
2023-03-31T11:35:45.389Z,13.80
2023-03-31T11:38:29.793Z,13.70
2023-03-31T11:41:03.810Z,13.70
2023-03-31T11:43:37.641Z,13.70
2023-03-31T11:46:12.353Z,13.70
2023-03-31T11:48:46.209Z,13.70
2023-03-31T11:51:21.399Z,13.80
2023-03-31T11:53:53.187Z,13.90
2023-03-31T11:56:23.325Z,14.00
2023-03-31T11:58:56.257Z,14.00
2023-03-31T12:01:32.120Z,14.10
2023-03-31T12:04:06.437Z,14.00
2023-03-31T12:06:42.565Z,14.00
2023-03-31T12:09:23.071Z,14.00
2023-03-31T12:12:00.122Z,13.90
2023-03-31T12:14:36.075Z,13.90
2023-03-31T12:17:12.222Z,13.80
2023-03-31T12:19:49.676Z,13.90
2023-03-31T12:22:27.050Z,13.80
2023-03-31T12:24:56.561Z,13.80
2023-03-31T12:27:28.718Z,13.80
2023-03-31T12:30:00.720Z,13.70
2023-03-31T12:32:36.448Z,13.70
2023-03-31T12:35:09.674Z,13.70
2023-03-31T12:38:11.742Z,13.70
2023-03-31T12:40:51.040Z,13.60
2023-03-31T12:43:48.101Z,13.60
2023-03-31T12:46:31.041Z,13.50
2023-03-31T12:49:27.252Z,13.60
2023-03-31T12:52:06.723Z,13.60
2023-03-31T12:55:24.064Z,13.60
2023-03-31T12:57:53.083Z,13.70
2023-03-31T13:00:27.646Z,13.80
2023-03-31T13:03:35.507Z,14.00
2023-03-31T13:06:06.797Z,14.10
2023-03-31T13:08:54.016Z,14.30
2023-03-31T13:11:35.814Z,14.50
2023-03-31T13:14:08.239Z,14.60
2023-03-31T13:16:37.793Z,14.80
2023-03-31T13:19:07.331Z,15.00
2023-03-31T13:21:56.782Z,15.20
2023-03-31T13:24:27.785Z,15.40
2023-03-31T13:26:59.329Z,15.50
2023-03-31T13:29:42.592Z,15.70
2023-03-31T13:32:24.106Z,15.70
2023-03-31T13:35:03.744Z,15.80
2023-03-31T13:37:53.488Z,15.90
2023-03-31T13:40:53.764Z,15.90
2023-03-31T13:43:58.168Z,15.90
2023-03-31T13:46:55.780Z,15.90
2023-03-31T13:50:04.055Z,15.80
2023-03-31T13:52:43.962Z,15.70
2023-03-31T13:55:49.661Z,15.60
2023-03-31T13:58:38.835Z,15.50
2023-03-31T14:01:42.021Z,15.40
2023-03-31T14:04:39.304Z,15.30
2023-03-31T14:07:13.530Z,15.20
2023-03-31T14:09:49.799Z,15.10
2023-03-31T14:12:23.837Z,15.00
2023-03-31T14:14:55.510Z,14.90
2023-03-31T14:17:29.261Z,14.90
2023-03-31T14:20:22.987Z,14.90
2023-03-31T14:22:58.258Z,14.90
2023-03-31T14:25:42.787Z,15.00
2023-03-31T14:28:29.833Z,15.00
2023-03-31T14:31:13.411Z,15.10
2023-03-31T14:33:54.136Z,15.10
2023-03-31T14:36:31.614Z,15.20
2023-03-31T14:39:04.251Z,15.20
2023-03-31T14:41:37.820Z,15.20
2023-03-31T14:44:08.826Z,15.20
2023-03-31T14:46:39.937Z,15.20
2023-03-31T14:49:20.492Z,15.20
2023-03-31T14:51:49.543Z,15.30
2023-03-31T14:54:20.359Z,15.30
2023-03-31T14:56:53.969Z,15.40
2023-03-31T14:59:27.619Z,15.40
2023-03-31T15:01:59.289Z,15.40
2023-03-31T15:04:41.473Z,15.50
2023-03-31T15:07:12.279Z,15.50
2023-03-31T15:09:50.677Z,15.50
2023-03-31T15:12:22.845Z,15.50
2023-03-31T15:14:56.024Z,15.60
2023-03-31T15:17:28.917Z,15.60
2023-03-31T15:19:59.356Z,15.60
2023-03-31T15:22:30.700Z,15.60
2023-03-31T15:25:00.162Z,15.60
2023-03-31T15:27:37.394Z,15.60
2023-03-31T15:30:09.402Z,15.60
2023-03-31T15:32:40.647Z,15.60
2023-03-31T15:35:22.607Z,15.50
2023-03-31T15:37:53.263Z,15.60
2023-03-31T15:40:25.045Z,15.50
2023-03-31T15:45:50.014Z,15.60
2023-03-31T15:48:23.533Z,15.60
2023-03-31T15:50:53.178Z,15.60
2023-03-31T15:53:29.968Z,15.70
2023-03-31T15:56:01.711Z,15.60
2023-03-31T15:58:56.457Z,15.60
2023-03-31T16:01:32.849Z,15.60
2023-03-31T16:04:03.607Z,15.60
2023-03-31T16:06:46.652Z,15.60
2023-03-31T16:09:20.074Z,15.60
2023-03-31T16:11:53.214Z,15.70
2023-03-31T16:14:26.746Z,15.70
2023-03-31T16:16:59.188Z,15.70
2023-03-31T16:19:30.636Z,15.60
2023-03-31T16:22:02.206Z,15.60
2023-03-31T16:24:33.899Z,15.60
2023-03-31T16:27:09.441Z,15.60
2023-03-31T16:29:40.598Z,15.50
2023-03-31T16:32:13.155Z,15.50
2023-03-31T16:34:57.351Z,15.50
2023-03-31T16:37:27.024Z,15.50
2023-03-31T16:39:56.634Z,15.50
2023-03-31T16:42:26.146Z,15.50
2023-03-31T16:47:47.915Z,15.40
2023-03-31T16:50:17.312Z,15.40
2023-03-31T16:52:47.218Z,15.30
2023-03-31T16:55:16.654Z,15.30
2023-03-31T16:57:46.097Z,15.30
2023-03-31T17:00:17.183Z,15.20
2023-03-31T17:02:46.409Z,15.20
2023-03-31T17:05:15.892Z,15.20
2023-03-31T17:07:47.157Z,15.20
2023-03-31T17:10:16.967Z,15.20
2023-03-31T17:12:46.161Z,15.10
2023-03-31T17:15:16.602Z,15.10
2023-03-31T17:17:46.324Z,15.10
2023-03-31T17:20:15.803Z,15.00
2023-03-31T17:22:45.035Z,15.00
2023-03-31T17:25:14.009Z,14.90
2023-03-31T17:27:43.507Z,14.90
2023-03-31T17:30:13.833Z,14.80
2023-03-31T17:32:44.462Z,14.80
2023-03-31T17:35:20.436Z,14.70
2023-03-31T17:37:53.418Z,14.70
2023-03-31T17:40:22.854Z,14.60
2023-03-31T17:42:52.529Z,14.60
2023-03-31T17:45:22.105Z,14.50
2023-03-31T17:47:52.522Z,14.40
2023-03-31T17:50:22.081Z,14.40
2023-03-31T17:52:51.614Z,14.30
2023-03-31T17:55:20.724Z,14.30
2023-03-31T17:57:50.069Z,14.30
2023-03-31T18:00:19.609Z,14.20
2023-03-31T18:02:48.879Z,14.20
2023-03-31T18:05:19.687Z,14.20
2023-03-31T18:07:48.891Z,14.20
2023-03-31T18:10:18.839Z,14.10
2023-03-31T18:12:47.938Z,14.10
2023-03-31T18:15:17.401Z,14.00
2023-03-31T18:17:46.523Z,14.00
2023-03-31T18:20:16.928Z,14.00
2023-03-31T18:22:47.734Z,14.00
2023-03-31T18:25:17.325Z,14.00
2023-03-31T18:27:47.387Z,14.00
2023-03-31T18:30:16.681Z,13.90
2023-03-31T18:32:45.735Z,14.00
2023-03-31T18:35:16.588Z,14.00
2023-03-31T18:37:47.148Z,14.00
2023-03-31T18:40:16.165Z,14.00
2023-03-31T18:42:45.581Z,14.00
2023-03-31T18:45:14.724Z,14.00
2023-03-31T18:47:43.752Z,14.00
2023-03-31T18:50:13.895Z,14.00
2023-03-31T18:52:42.912Z,14.00
2023-03-31T18:55:13.150Z,14.00
2023-03-31T18:57:42.083Z,14.00
2023-03-31T19:00:12.156Z,14.00
2023-03-31T19:02:41.818Z,14.00
2023-03-31T19:05:11.215Z,14.00
2023-03-31T19:07:40.747Z,14.00
2023-03-31T19:10:10.577Z,14.00
2023-03-31T19:12:41.020Z,14.00
2023-03-31T19:15:11.258Z,14.00
2023-03-31T19:17:40.475Z,14.00
2023-03-31T19:20:16.254Z,14.00
2023-03-31T19:22:46.001Z,14.00
2023-03-31T19:25:15.404Z,14.00
2023-03-31T19:27:46.845Z,14.00
2023-03-31T19:30:18.622Z,14.00
2023-03-31T19:32:48.969Z,14.00
2023-03-31T19:35:20.151Z,14.00
2023-03-31T19:37:49.847Z,14.00
2023-03-31T19:40:19.305Z,13.90
2023-03-31T19:42:49.691Z,13.90
2023-03-31T19:45:18.857Z,13.90
2023-03-31T19:47:48.006Z,13.90
2023-03-31T19:50:17.205Z,13.90
2023-03-31T19:52:49.752Z,13.90
2023-03-31T19:55:19.017Z,13.90
2023-03-31T19:57:49.460Z,13.90
2023-03-31T20:00:19.555Z,13.90
2023-03-31T20:02:49.175Z,13.90
2023-03-31T20:05:19.642Z,13.90
2023-03-31T20:07:48.635Z,13.90
2023-03-31T20:10:17.674Z,13.90
2023-03-31T20:12:46.813Z,13.90
2023-03-31T20:15:17.176Z,13.90
2023-03-31T20:17:47.139Z,13.90
2023-03-31T20:20:16.306Z,13.90
2023-03-31T20:22:45.521Z,13.90
2023-03-31T20:25:14.409Z,13.90
2023-03-31T20:27:43.633Z,13.90
2023-03-31T20:30:13.324Z,13.90
2023-03-31T20:32:43.877Z,13.90
2023-03-31T20:35:13.623Z,13.90
2023-03-31T20:37:42.689Z,13.90
2023-03-31T20:40:12.332Z,13.90
2023-03-31T20:42:41.250Z,13.80
2023-03-31T20:45:10.860Z,13.80
2023-03-31T20:47:40.109Z,13.80
2023-03-31T20:50:11.177Z,13.80
2023-03-31T20:52:40.022Z,13.80
2023-03-31T20:55:09.781Z,13.80
2023-03-31T20:57:38.667Z,13.80
2023-03-31T21:00:09.025Z,13.80
2023-03-31T21:02:38.508Z,13.70
2023-03-31T21:05:08.120Z,13.70
2023-03-31T21:07:38.398Z,13.70
2023-03-31T21:10:08.159Z,13.70
2023-03-31T21:12:38.008Z,13.70
2023-03-31T21:15:07.952Z,13.60
2023-03-31T21:17:36.907Z,13.60
2023-03-31T21:20:07.662Z,13.60
2023-03-31T21:22:38.012Z,13.60
2023-03-31T21:25:08.838Z,13.60
2023-03-31T21:27:37.717Z,13.60
2023-03-31T21:30:08.384Z,13.60
2023-03-31T21:32:37.474Z,13.60
2023-03-31T21:35:07.321Z,13.50
2023-03-31T21:37:37.769Z,13.50
2023-03-31T21:40:08.001Z,13.50
2023-03-31T21:42:37.512Z,13.40
2023-03-31T21:45:07.573Z,13.50
2023-03-31T21:47:37.246Z,13.40
2023-03-31T21:50:07.153Z,13.40
2023-03-31T21:52:36.418Z,13.40
2023-03-31T21:55:07.501Z,13.40
2023-03-31T21:57:36.391Z,13.40
2023-03-31T22:00:12.055Z,13.30
2023-03-31T22:02:41.426Z,13.30
2023-03-31T22:05:10.885Z,13.30
2023-03-31T22:07:39.959Z,13.30
2023-03-31T22:10:11.586Z,13.30
2023-03-31T22:12:40.616Z,13.30
2023-03-31T22:15:12.517Z,13.30
2023-03-31T22:17:41.842Z,13.30
2023-03-31T22:20:12.354Z,13.20
2023-03-31T22:22:41.782Z,13.20
2023-03-31T22:25:12.402Z,13.20
2023-03-31T22:27:41.573Z,13.20
2023-03-31T22:30:11.705Z,13.20
2023-03-31T22:32:40.739Z,13.10
2023-03-31T22:35:10.922Z,13.10
2023-03-31T22:37:40.107Z,13.10
2023-03-31T22:40:10.642Z,13.10
2023-03-31T22:42:41.854Z,13.10
2023-03-31T22:45:11.403Z,13.10
2023-03-31T22:47:42.176Z,13.10
2023-03-31T22:50:12.390Z,13.10
2023-03-31T22:52:41.448Z,13.10
2023-03-31T22:55:10.701Z,13.10
2023-03-31T22:57:41.510Z,13.10
2023-03-31T23:00:12.657Z,13.10
2023-03-31T23:02:42.150Z,13.10
2023-03-31T23:05:11.651Z,13.10
2023-03-31T23:07:41.511Z,13.10
2023-03-31T23:10:11.418Z,13.20
2023-03-31T23:12:41.919Z,13.20
2023-03-31T23:15:11.333Z,13.20
2023-03-31T23:17:40.393Z,13.10
2023-03-31T23:20:10.064Z,13.10
2023-03-31T23:22:39.188Z,13.10
2023-03-31T23:25:08.762Z,13.10
2023-03-31T23:27:37.810Z,13.10
2023-03-31T23:30:09.898Z,13.10
2023-03-31T23:32:38.861Z,13.10
2023-03-31T23:35:09.046Z,13.10
2023-03-31T23:37:38.067Z,13.10
2023-03-31T23:40:08.663Z,13.10
2023-03-31T23:42:37.898Z,13.10
2023-03-31T23:45:09.416Z,13.10
2023-03-31T23:47:40.717Z,13.10
2023-03-31T23:50:11.288Z,13.10
2023-03-31T23:52:40.199Z,13.10
2023-03-31T23:55:09.734Z,13.10
2023-03-31T23:57:38.635Z,13.10
